createdAt,value
2019-06-10T00:00:38.314Z,47.14
2019-06-10T00:03:08.334Z,47.14
2019-06-10T00:05:38.207Z,47.15
2019-06-10T00:08:08.240Z,47.15
2019-06-10T00:10:38.561Z,47.19
2019-06-10T00:13:08.685Z,47.19
2019-06-10T00:15:40.773Z,47.25
2019-06-10T00:18:33.548Z,47.41
2019-06-10T00:20:41.745Z,47.41
2019-06-10T00:23:12.454Z,47.42
2019-06-10T00:25:43.174Z,47.46
2019-06-10T00:28:13.119Z,47.47
2019-06-10T00:30:43.127Z,47.51
2019-06-10T00:33:13.180Z,47.45
2019-06-10T00:35:43.459Z,47.37
2019-06-10T00:38:14.363Z,47.33
2019-06-10T00:40:44.479Z,47.30
2019-06-10T00:43:14.401Z,47.30
2019-06-10T00:45:44.304Z,47.29
2019-06-10T00:48:25.019Z,47.26
2019-06-10T00:50:45.954Z,47.31
2019-06-10T00:53:16.132Z,47.33
2019-06-10T00:55:45.983Z,47.33
2019-06-10T00:58:15.897Z,47.39
2019-06-10T01:00:45.962Z,47.40
2019-06-10T01:03:15.833Z,47.41
2019-06-10T01:05:46.997Z,47.34
2019-06-10T01:08:16.987Z,47.33
2019-06-10T01:10:47.213Z,47.32
2019-06-10T01:13:17.075Z,47.29
2019-06-10T01:15:47.296Z,47.28
2019-06-10T01:18:33.662Z,47.20
2019-06-10T01:20:48.664Z,47.20
2019-06-10T01:23:18.621Z,47.19
2019-06-10T01:25:50.905Z,47.21
2019-06-10T01:28:22.105Z,47.21
2019-06-10T01:30:53.177Z,47.21
2019-06-10T01:33:23.195Z,47.23
2019-06-10T01:35:53.006Z,47.21
2019-06-10T01:38:22.851Z,47.23
2019-06-10T01:40:52.648Z,47.23
2019-06-10T01:43:22.860Z,47.26
2019-06-10T01:45:52.737Z,47.22
2019-06-10T01:48:22.643Z,47.21
2019-06-10T01:50:52.520Z,47.18
2019-06-10T01:53:22.528Z,47.18
2019-06-10T01:55:53.412Z,47.13
2019-06-10T01:58:23.774Z,47.14
2019-06-10T02:01:20.348Z,47.23
2019-06-10T02:03:51.877Z,47.26
2019-06-10T02:06:25.595Z,47.42
2019-06-10T02:09:04.952Z,47.46
2019-06-10T02:11:36.135Z,47.50
2019-06-10T02:14:07.244Z,47.49
2019-06-10T02:16:37.393Z,47.54
2019-06-10T02:19:07.540Z,47.52
2019-06-10T02:21:37.801Z,47.65
2019-06-10T02:24:07.717Z,47.64
2019-06-10T02:26:37.783Z,47.65
2019-06-10T02:29:07.643Z,47.77
2019-06-10T02:31:38.045Z,47.80
2019-06-10T02:34:08.080Z,47.82
2019-06-10T02:36:38.266Z,47.84
2019-06-10T02:39:09.576Z,48.01
2019-06-10T02:41:39.992Z,47.94
2019-06-10T02:44:10.369Z,47.95
2019-06-10T02:46:43.617Z,47.98
2019-06-10T02:49:28.290Z,48.04
2019-06-10T02:51:44.251Z,48.10
2019-06-10T02:54:16.858Z,48.08
2019-06-10T02:56:46.412Z,48.19
2019-06-10T02:59:18.165Z,48.31
2019-06-10T03:01:48.357Z,48.35
2019-06-10T03:04:20.543Z,48.45
2019-06-10T03:06:49.738Z,48.65
2019-06-10T03:09:21.650Z,48.60
2019-06-10T03:11:53.474Z,48.69
2019-06-10T03:14:25.265Z,48.76
2019-06-10T03:16:58.909Z,48.79
2019-06-10T03:19:41.896Z,48.84
2019-06-10T03:22:02.618Z,48.76
2019-06-10T03:24:32.785Z,48.65
2019-06-10T03:27:03.709Z,48.66
2019-06-10T03:29:33.570Z,48.74
2019-06-10T03:32:05.126Z,48.95
2019-06-10T03:34:41.651Z,49.00
2019-06-10T03:37:06.639Z,49.03
2019-06-10T03:39:36.923Z,48.95
2019-06-10T03:42:06.720Z,48.96
2019-06-10T03:44:36.564Z,48.84
2019-06-10T03:47:06.400Z,48.84
2019-06-10T03:49:49.006Z,48.86
2019-06-10T03:52:07.915Z,48.91
2019-06-10T03:54:38.006Z,48.80
2019-06-10T03:57:08.208Z,48.78
2019-06-10T03:59:38.035Z,48.82
2019-06-10T04:02:08.028Z,48.81
2019-06-10T04:04:37.894Z,48.86
2019-06-10T04:07:07.859Z,49.15
2019-06-10T04:09:37.640Z,49.24
2019-06-10T04:12:07.592Z,49.31
2019-06-10T04:14:37.666Z,49.01
2019-06-10T04:17:08.290Z,49.04
2019-06-10T04:19:38.050Z,49.15
2019-06-10T04:22:08.265Z,49.13
2019-06-10T04:24:38.077Z,49.24
2019-06-10T04:27:07.931Z,49.15
2019-06-10T04:29:37.933Z,49.02
2019-06-10T04:32:08.041Z,49.03
2019-06-10T04:34:38.348Z,49.14
2019-06-10T04:37:08.210Z,49.07
2019-06-10T04:39:38.019Z,49.02
2019-06-10T04:42:08.261Z,49.13
2019-06-10T04:44:38.175Z,49.33
2019-06-10T04:47:08.113Z,49.18
2019-06-10T04:49:38.184Z,49.03
2019-06-10T04:52:07.996Z,49.11
2019-06-10T04:54:38.165Z,48.94
2019-06-10T04:57:08.414Z,48.99
2019-06-10T04:59:38.402Z,48.91
2019-06-10T05:02:08.847Z,48.81
2019-06-10T05:04:38.718Z,48.71
2019-06-10T05:07:08.657Z,48.59
2019-06-10T05:09:38.438Z,48.49
2019-06-10T05:12:08.339Z,48.17
2019-06-10T05:14:38.238Z,47.45
2019-06-10T05:17:08.165Z,45.86
2019-06-10T05:19:37.986Z,45.75
2019-06-10T05:22:07.815Z,46.18
2019-06-10T05:24:37.686Z,46.53
2019-06-10T05:27:07.533Z,47.17
2019-06-10T05:29:37.531Z,45.85
2019-06-10T05:32:07.650Z,43.39
2019-06-10T05:34:38.409Z,42.32
2019-06-10T05:37:08.669Z,41.68
2019-06-10T05:39:38.602Z,41.75
2019-06-10T05:42:08.926Z,42.30
2019-06-10T05:44:38.938Z,40.66
2019-06-10T05:47:08.985Z,39.11
2019-06-10T05:49:40.139Z,39.57
2019-06-10T05:52:12.486Z,40.65
2019-06-10T05:54:43.190Z,43.22
2019-06-10T05:57:13.446Z,45.30
2019-06-10T05:59:43.395Z,46.73
2019-06-10T06:02:13.589Z,45.60
2019-06-10T06:04:43.429Z,44.12
2019-06-10T06:07:14.811Z,43.69
2019-06-10T06:09:44.973Z,45.11
2019-06-10T06:12:15.181Z,46.76
2019-06-10T06:14:44.906Z,47.68
2019-06-10T06:17:16.778Z,48.33
2019-06-10T06:19:48.190Z,48.90
2019-06-10T06:22:17.990Z,49.13
2019-06-10T06:24:48.155Z,49.34
2019-06-10T06:27:19.273Z,49.44
2019-06-10T06:29:52.306Z,49.39
2019-06-10T06:32:23.557Z,49.24
2019-06-10T06:34:53.681Z,49.26
2019-06-10T06:37:23.496Z,49.15
2019-06-10T06:39:53.427Z,49.04
2019-06-10T06:42:23.337Z,48.79
2019-06-10T06:44:53.311Z,48.38
2019-06-10T06:47:23.293Z,47.96
2019-06-10T06:49:53.249Z,47.81
2019-06-10T06:52:46.403Z,47.63
2019-06-10T06:54:54.816Z,46.74
2019-06-10T06:57:24.732Z,45.82
2019-06-10T06:59:54.597Z,45.25
2019-06-10T07:02:25.340Z,45.08
2019-06-10T07:04:55.451Z,44.92
2019-06-10T07:07:25.842Z,44.88
2019-06-10T07:09:57.718Z,45.09
2019-06-10T07:12:31.362Z,45.21
2019-06-10T07:15:04.304Z,45.34
2019-06-10T07:17:36.237Z,45.86
2019-06-10T07:20:06.383Z,46.22
2019-06-10T07:22:38.057Z,46.18
2019-06-10T07:25:07.781Z,45.86
2019-06-10T07:27:39.891Z,45.54
2019-06-10T07:30:12.545Z,45.90
2019-06-10T07:32:45.379Z,46.02
2019-06-10T07:35:13.137Z,46.01
2019-06-10T07:37:44.505Z,46.14
2019-06-10T07:40:14.630Z,46.37
2019-06-10T07:42:45.614Z,46.83
2019-06-10T07:45:15.944Z,46.95
2019-06-10T07:47:45.853Z,46.83
2019-06-10T07:50:16.424Z,46.84
2019-06-10T07:52:46.940Z,46.91
2019-06-10T07:55:17.137Z,47.07
2019-06-10T07:57:47.108Z,46.56
2019-06-10T08:00:17.607Z,46.43
2019-06-10T08:02:47.555Z,46.40
2019-06-10T08:05:18.666Z,46.57
2019-06-10T08:07:49.050Z,46.66
2019-06-10T08:10:19.170Z,46.50
2019-06-10T08:12:49.351Z,46.55
2019-06-10T08:15:19.267Z,46.79
2019-06-10T08:17:49.108Z,46.87
2019-06-10T08:20:37.016Z,46.80
2019-06-10T08:23:06.958Z,46.78
2019-06-10T08:25:37.225Z,47.02
2019-06-10T08:28:08.593Z,47.03
2019-06-10T08:30:39.773Z,46.84
2019-06-10T08:33:13.570Z,46.54
2019-06-10T08:35:52.156Z,46.14
2019-06-10T08:38:14.244Z,45.99
2019-06-10T08:40:45.393Z,45.90
2019-06-10T08:43:15.929Z,45.63
2019-06-10T08:45:47.521Z,45.58
2019-06-10T08:48:17.877Z,45.92
2019-06-10T08:50:50.190Z,45.83
2019-06-10T08:53:22.759Z,45.51
2019-06-10T08:55:53.626Z,45.29
2019-06-10T08:58:23.812Z,45.50
2019-06-10T09:00:54.031Z,45.52
2019-06-10T09:03:24.286Z,45.52
2019-06-10T09:05:58.319Z,45.61
2019-06-10T09:08:27.614Z,45.74
2019-06-10T09:10:57.407Z,45.54
2019-06-10T09:13:29.093Z,45.17
2019-06-10T09:16:10.905Z,45.17
2019-06-10T09:18:33.435Z,45.26
2019-06-10T09:21:06.202Z,45.13
2019-06-10T09:23:36.220Z,45.00
2019-06-10T09:26:06.669Z,44.94
2019-06-10T09:28:37.019Z,44.80
2019-06-10T09:31:07.285Z,44.72
2019-06-10T09:33:37.209Z,44.66
2019-06-10T09:36:07.491Z,44.99
2019-06-10T09:38:37.554Z,45.21
2019-06-10T09:41:07.850Z,45.10
2019-06-10T09:43:37.658Z,45.07
2019-06-10T09:46:07.967Z,44.96
2019-06-10T09:48:38.293Z,44.89
2019-06-10T09:51:08.173Z,44.99
2019-06-10T09:53:42.807Z,45.40
2019-06-10T09:56:09.634Z,45.44
2019-06-10T09:58:40.906Z,45.40
2019-06-10T10:01:13.307Z,45.26
2019-06-10T10:03:47.956Z,45.15
2019-06-10T10:06:15.965Z,44.92
2019-06-10T10:08:52.446Z,44.96
2019-06-10T10:11:18.880Z,44.91
2019-06-10T10:13:49.907Z,45.02
2019-06-10T10:16:22.537Z,45.13
2019-06-10T10:19:00.185Z,45.15
2019-06-10T10:21:25.730Z,44.94
2019-06-10T10:24:06.799Z,44.68
2019-06-10T10:26:27.190Z,44.80
2019-06-10T10:28:57.253Z,44.89
2019-06-10T10:31:27.088Z,44.74
2019-06-10T10:33:57.165Z,44.51
2019-06-10T10:36:27.127Z,44.30
2019-06-10T10:38:57.093Z,43.75
2019-06-10T10:41:26.945Z,43.94
2019-06-10T10:43:58.506Z,44.28
2019-06-10T10:46:29.166Z,44.19
2019-06-10T10:48:59.262Z,43.99
2019-06-10T10:51:32.509Z,43.66
2019-06-10T10:54:21.147Z,43.08
2019-06-10T10:56:35.224Z,43.41
2019-06-10T10:59:05.385Z,43.67
2019-06-10T11:01:35.664Z,43.92
2019-06-10T11:04:05.735Z,44.38
2019-06-10T11:06:35.890Z,44.56
2019-06-10T11:09:09.719Z,44.64
2019-06-10T11:11:44.023Z,44.88
2019-06-10T11:14:15.439Z,45.02
2019-06-10T11:16:45.345Z,45.03
2019-06-10T11:19:15.163Z,44.49
2019-06-10T11:21:45.291Z,43.98
2019-06-10T11:24:31.924Z,43.97
2019-06-10T11:26:47.836Z,43.74
2019-06-10T11:29:17.902Z,43.85
2019-06-10T11:31:48.457Z,43.71
2019-06-10T11:34:19.815Z,43.81
2019-06-10T11:36:50.562Z,44.00
2019-06-10T11:39:22.524Z,44.18
2019-06-10T11:41:53.322Z,44.17
2019-06-10T11:44:24.113Z,43.98
2019-06-10T11:46:57.477Z,44.34
2019-06-10T11:49:25.479Z,44.45
2019-06-10T11:51:56.485Z,44.13
2019-06-10T11:54:26.756Z,43.78
2019-06-10T11:56:58.176Z,43.72
2019-06-10T11:59:28.226Z,43.68
2019-06-10T12:02:01.633Z,43.66
2019-06-10T12:04:29.711Z,44.09
2019-06-10T12:06:59.531Z,43.67
2019-06-10T12:09:29.580Z,43.61
2019-06-10T12:12:02.107Z,43.64
2019-06-10T12:14:33.113Z,43.09
2019-06-10T12:17:34.978Z,43.50
2019-06-10T12:19:35.730Z,43.54
2019-06-10T12:22:07.584Z,43.07
2019-06-10T12:24:37.969Z,42.60
2019-06-10T12:27:07.860Z,42.18
2019-06-10T12:29:37.662Z,42.38
2019-06-10T12:32:07.900Z,42.74
2019-06-10T12:34:37.896Z,42.72
2019-06-10T12:37:11.992Z,42.71
2019-06-10T12:39:39.299Z,42.60
2019-06-10T12:42:13.421Z,42.58
2019-06-10T12:44:42.875Z,43.12
2019-06-10T12:47:13.180Z,43.18
2019-06-10T12:49:43.010Z,42.73
2019-06-10T12:52:12.905Z,42.93
2019-06-10T12:54:42.661Z,43.34
2019-06-10T12:57:16.270Z,43.45
2019-06-10T12:59:44.893Z,43.51
2019-06-10T13:02:22.584Z,43.34
2019-06-10T13:04:47.261Z,43.35
2019-06-10T13:07:18.820Z,43.66
2019-06-10T13:09:48.673Z,43.77
2019-06-10T13:12:18.408Z,44.10
2019-06-10T13:14:48.165Z,43.68
2019-06-10T13:17:18.204Z,43.67
2019-06-10T13:19:48.124Z,43.33
2019-06-10T13:22:17.986Z,43.50
2019-06-10T13:24:48.193Z,43.16
2019-06-10T13:27:18.424Z,43.40
2019-06-10T13:29:48.236Z,44.15
2019-06-10T13:32:18.177Z,44.30
2019-06-10T13:34:48.006Z,44.55
2019-06-10T13:37:17.863Z,44.38
2019-06-10T13:39:49.292Z,43.88
2019-06-10T13:42:22.575Z,43.37
2019-06-10T13:44:52.378Z,42.29
2019-06-10T13:47:26.072Z,42.80
2019-06-10T13:49:54.579Z,43.40
2019-06-10T13:52:24.580Z,42.99
2019-06-10T13:54:54.663Z,42.74
2019-06-10T13:57:24.601Z,42.41
2019-06-10T13:59:54.512Z,42.49
2019-06-10T14:02:25.052Z,43.30
2019-06-10T14:04:55.577Z,43.85
2019-06-10T14:07:26.183Z,44.17
2019-06-10T14:09:56.213Z,44.27
2019-06-10T14:12:26.506Z,44.48
2019-06-10T14:14:56.314Z,44.84
2019-06-10T14:17:26.460Z,45.25
2019-06-10T14:19:57.318Z,45.44
2019-06-10T14:22:27.251Z,45.15
2019-06-10T14:24:57.053Z,45.31
2019-06-10T14:27:26.903Z,45.26
2019-06-10T14:29:56.990Z,45.35
2019-06-10T14:32:27.009Z,45.15
2019-06-10T14:34:57.017Z,45.04
2019-06-10T14:37:36.151Z,44.91
2019-06-10T14:39:58.969Z,44.80
2019-06-10T14:42:28.851Z,44.66
2019-06-10T14:44:59.348Z,44.57
2019-06-10T14:47:29.124Z,44.83
2019-06-10T14:49:58.981Z,44.67
2019-06-10T14:52:29.082Z,44.58
2019-06-10T14:54:58.986Z,44.15
2019-06-10T14:57:29.188Z,43.72
2019-06-10T14:59:59.536Z,43.78
2019-06-10T15:02:29.376Z,43.79
2019-06-10T15:04:59.176Z,43.79
2019-06-10T15:07:29.183Z,43.86
2019-06-10T15:09:59.079Z,43.74
2019-06-10T15:12:28.930Z,43.94
2019-06-10T15:14:58.854Z,43.92
2019-06-10T15:17:28.735Z,43.75
2019-06-10T15:19:58.680Z,44.33
2019-06-10T15:22:28.556Z,44.27
2019-06-10T15:24:58.362Z,44.51
2019-06-10T15:27:31.581Z,45.01
2019-06-10T15:30:00.243Z,45.06
2019-06-10T15:32:34.673Z,45.29
2019-06-10T15:35:03.397Z,45.48
2019-06-10T15:37:33.845Z,45.29
2019-06-10T15:40:04.257Z,45.19
2019-06-10T15:42:34.084Z,44.98
2019-06-10T15:45:04.497Z,45.02
2019-06-10T15:47:35.451Z,44.95
2019-06-10T15:50:06.305Z,44.93
2019-06-10T15:52:36.320Z,44.96
2019-06-10T15:55:06.470Z,45.01
2019-06-10T15:57:42.672Z,45.26
2019-06-10T16:00:14.262Z,45.34
2019-06-10T16:02:40.825Z,45.14
2019-06-10T16:05:13.949Z,44.92
2019-06-10T16:07:42.750Z,45.00
2019-06-10T16:10:17.803Z,45.21
2019-06-10T16:12:45.213Z,45.23
2019-06-10T16:15:16.598Z,45.17
2019-06-10T16:17:46.910Z,44.98
2019-06-10T16:20:17.801Z,44.87
2019-06-10T16:22:47.961Z,44.98
2019-06-10T16:25:18.101Z,45.07
2019-06-10T16:27:51.106Z,45.31
2019-06-10T16:30:22.788Z,45.18
2019-06-10T16:32:52.959Z,44.93
2019-06-10T16:35:23.988Z,44.88
2019-06-10T16:37:56.859Z,44.81
2019-06-10T16:40:27.285Z,45.10
2019-06-10T16:42:57.260Z,45.41
2019-06-10T16:45:30.586Z,45.61
2019-06-10T16:47:58.852Z,45.77
2019-06-10T16:50:29.954Z,45.81
2019-06-10T16:53:02.837Z,45.87
2019-06-10T16:55:33.286Z,45.80
2019-06-10T16:58:03.363Z,45.91
2019-06-10T17:00:35.030Z,46.07
2019-06-10T17:03:06.191Z,46.36
2019-06-10T17:05:36.312Z,46.57
2019-06-10T17:08:06.435Z,46.67
2019-06-10T17:10:36.263Z,46.78
2019-06-10T17:13:07.914Z,46.85
2019-06-10T17:15:38.142Z,46.98
2019-06-10T17:18:08.398Z,46.99
2019-06-10T17:20:38.278Z,47.08
2019-06-10T17:23:26.540Z,47.26
2019-06-10T17:25:56.027Z,47.40
2019-06-10T17:28:29.770Z,47.36
2019-06-10T17:30:59.022Z,47.36
2019-06-10T17:33:30.419Z,47.48
2019-06-10T17:36:03.085Z,47.41
2019-06-10T17:38:32.415Z,47.37
2019-06-10T17:41:03.155Z,47.45
2019-06-10T17:43:34.455Z,47.45
2019-06-10T17:46:05.929Z,47.55
2019-06-10T17:48:35.960Z,47.95
2019-06-10T17:51:05.905Z,48.53
2019-06-10T17:53:35.828Z,48.73
2019-06-10T17:56:05.735Z,48.66
2019-06-10T17:58:50.137Z,48.63
2019-06-10T18:01:07.331Z,48.55
2019-06-10T18:03:39.840Z,48.50
2019-06-10T18:06:08.893Z,48.55
2019-06-10T18:08:40.733Z,48.62
2019-06-10T18:11:12.719Z,48.55
2019-06-10T18:13:43.141Z,48.58
2019-06-10T18:16:13.516Z,48.50
2019-06-10T18:18:43.377Z,48.47
2019-06-10T18:21:13.231Z,48.40
2019-06-10T18:23:43.690Z,48.67
2019-06-10T18:26:14.011Z,48.75
2019-06-10T18:29:00.948Z,49.09
2019-06-10T18:31:18.496Z,49.46
2019-06-10T18:33:47.194Z,49.52
2019-06-10T18:36:17.407Z,49.67
2019-06-10T18:38:47.311Z,49.69
2019-06-10T18:41:17.248Z,49.57
2019-06-10T18:43:47.414Z,49.40
2019-06-10T18:46:17.298Z,49.50
2019-06-10T18:48:47.492Z,49.71
2019-06-10T18:51:17.562Z,49.81
2019-06-10T18:53:47.912Z,49.77
2019-06-10T18:56:17.977Z,49.70
2019-06-10T18:58:48.106Z,49.68
2019-06-10T19:01:18.221Z,49.59
2019-06-10T19:03:48.486Z,49.51
2019-06-10T19:06:18.665Z,49.43
2019-06-10T19:08:48.835Z,49.45
2019-06-10T19:11:18.908Z,49.48
2019-06-10T19:13:48.861Z,49.59
2019-06-10T19:16:18.761Z,49.57
2019-06-10T19:18:48.606Z,49.83
2019-06-10T19:21:18.423Z,50.12
2019-06-10T19:23:48.519Z,50.43
2019-06-10T19:26:18.644Z,50.52
2019-06-10T19:28:48.711Z,50.49
2019-06-10T19:31:19.205Z,50.51
2019-06-10T19:33:49.144Z,50.54
2019-06-10T19:36:19.148Z,50.74
2019-06-10T19:38:48.987Z,50.86
2019-06-10T19:41:18.934Z,50.75
2019-06-10T19:43:48.817Z,50.66
2019-06-10T19:46:19.146Z,50.63
2019-06-10T19:48:58.129Z,50.67
2019-06-10T19:51:21.324Z,50.51
2019-06-10T19:53:52.751Z,50.42
2019-06-10T19:56:26.407Z,50.37
2019-06-10T19:58:56.226Z,50.32
2019-06-10T20:01:26.086Z,50.22
2019-06-10T20:03:56.293Z,50.25
2019-06-10T20:06:26.369Z,50.24
2019-06-10T20:08:57.525Z,50.11
2019-06-10T20:11:27.318Z,50.02
2019-06-10T20:13:57.198Z,50.09
2019-06-10T20:16:27.624Z,50.17
2019-06-10T20:18:58.958Z,50.21
2019-06-10T20:21:29.130Z,50.28
2019-06-10T20:23:59.192Z,50.36
2019-06-10T20:26:29.306Z,50.54
2019-06-10T20:28:59.230Z,50.87
2019-06-10T20:31:29.159Z,51.49
2019-06-10T20:33:58.961Z,52.20
2019-06-10T20:36:28.993Z,52.80
2019-06-10T20:38:59.045Z,53.18
2019-06-10T20:41:28.843Z,53.17
2019-06-10T20:44:02.663Z,53.12
2019-06-10T20:46:32.413Z,52.89
2019-06-10T20:49:03.369Z,52.79
2019-06-10T20:51:48.782Z,52.66
2019-06-10T20:54:06.133Z,52.80
2019-06-10T20:56:36.469Z,52.72
2019-06-10T20:59:07.881Z,52.61
2019-06-10T21:01:38.744Z,52.65
2019-06-10T21:04:09.054Z,52.71
2019-06-10T21:06:39.462Z,52.79
2019-06-10T21:09:09.968Z,52.84
2019-06-10T21:11:39.999Z,52.80
2019-06-10T21:14:12.176Z,52.88
2019-06-10T21:16:42.034Z,52.98
2019-06-10T21:19:12.202Z,53.11
2019-06-10T21:21:45.087Z,53.06
2019-06-10T21:24:14.082Z,53.04
2019-06-10T21:26:46.701Z,53.02
2019-06-10T21:29:15.696Z,53.01
2019-06-10T21:31:48.319Z,52.83
2019-06-10T21:34:17.484Z,52.81
2019-06-10T21:36:47.456Z,52.79
2019-06-10T21:39:17.409Z,52.66
2019-06-10T21:41:48.247Z,52.70
2019-06-10T21:44:18.099Z,52.84
2019-06-10T21:46:48.768Z,53.08
2019-06-10T21:49:18.604Z,53.18
2019-06-10T21:51:50.177Z,53.23
2019-06-10T21:54:22.433Z,53.29
2019-06-10T21:56:55.394Z,53.32
2019-06-10T21:59:24.103Z,53.41
2019-06-10T22:01:55.569Z,53.48
2019-06-10T22:04:25.640Z,53.53
2019-06-10T22:06:56.341Z,53.58
2019-06-10T22:09:26.673Z,53.64
2019-06-10T22:11:56.728Z,53.55
2019-06-10T22:14:26.910Z,53.49
2019-06-10T22:16:56.763Z,53.50
2019-06-10T22:19:26.877Z,53.54
2019-06-10T22:21:56.931Z,53.51
2019-06-10T22:24:27.065Z,53.57
2019-06-10T22:26:57.059Z,53.60
2019-06-10T22:29:27.390Z,53.49
2019-06-10T22:31:57.398Z,53.40
2019-06-10T22:34:28.204Z,53.31
2019-06-10T22:36:58.204Z,53.19
2019-06-10T22:39:28.141Z,53.08
2019-06-10T22:41:58.089Z,52.92
2019-06-10T22:44:28.883Z,52.86
2019-06-10T22:47:00.056Z,52.90
2019-06-10T22:49:32.649Z,52.98
2019-06-10T22:52:01.432Z,53.11
2019-06-10T22:54:32.292Z,53.17
2019-06-10T22:57:02.918Z,53.13
2019-06-10T22:59:34.264Z,53.10
2019-06-10T23:02:04.181Z,53.03
2019-06-10T23:04:33.983Z,52.90
2019-06-10T23:07:03.746Z,52.77
2019-06-10T23:09:33.944Z,52.68
2019-06-10T23:12:03.812Z,52.62
2019-06-10T23:14:35.014Z,52.64
2019-06-10T23:17:04.988Z,52.75
2019-06-10T23:19:35.038Z,52.89
2019-06-10T23:22:05.535Z,52.75
2019-06-10T23:24:35.467Z,52.76
2019-06-10T23:27:05.595Z,52.75
2019-06-10T23:29:35.423Z,52.75
2019-06-10T23:32:06.980Z,52.79
2019-06-10T23:34:37.320Z,52.77
2019-06-10T23:37:07.560Z,52.80
2019-06-10T23:39:37.408Z,52.90
2019-06-10T23:42:07.553Z,53.10
2019-06-10T23:44:37.409Z,53.21
2019-06-10T23:47:07.320Z,53.37
2019-06-10T23:49:37.173Z,53.37
2019-06-10T23:52:07.294Z,53.30
2019-06-10T23:54:37.344Z,53.27
2019-06-10T23:57:07.528Z,53.31
2019-06-10T23:59:37.296Z,53.34
